Time;durP1;ratioP1;P1;durP2;ratioP2;P2;SDS_P1;SDS_P2;PMS_P1;PMS_P2;Temp;Humidity;BMP_temperature;BMP_pressure;BME280_temperature;BME280_humidity;BME280_pressure;Samples;Min_cycle;Max_cycle;Signal;HPM_P1;HPM_P2
2021/05/04 00:01:02;;;;;;;8.73;6.50;;;;;;;9.42;47.74;97608.34;8377647;28;20199;-61
2021/05/04 00:05:05;;;;;;;8.00;6.10;;;;;;;9.43;48.07;97606.63;8378479;28;20389;-61
2021/05/04 00:09:08;;;;;;;7.50;6.30;;;;;;;9.05;48.83;97604.00;8378460;28;20231;-61
2021/05/04 00:13:10;;;;;;;7.23;6.53;;;;;;;9.56;47.71;97593.03;8378932;28;20205;-61
2021/05/04 00:17:11;;;;;;;8.63;6.80;;;;;;;9.25;48.08;97583.25;8378757;28;20346;-63
2021/05/04 00:21:14;;;;;;;8.70;6.70;;;;;;;9.25;48.37;97572.91;8378345;28;20249;-61
2021/05/04 00:25:18;;;;;;;9.17;6.33;;;;;;;9.08;48.92;97565.09;8378373;28;20232;-60
2021/05/04 00:29:20;;;;;;;8.37;5.90;;;;;;;8.98;49.02;97559.50;8378058;28;20200;-61
2021/05/04 00:33:22;;;;;;;7.43;6.63;;;;;;;9.23;48.45;97563.56;8378125;28;20503;-61
2021/05/04 00:37:24;;;;;;;8.80;6.23;;;;;;;9.28;48.36;97546.94;8377950;28;20199;-61
2021/05/04 00:41:27;;;;;;;6.77;5.87;;;;;;;9.15;48.62;97541.50;8378084;28;20206;-61
2021/05/04 00:45:29;;;;;;;9.37;6.93;;;;;;;8.64;49.96;97536.91;8380205;28;20549;-61
2021/05/04 00:49:31;;;;;;;8.30;6.70;;;;;;;8.78;49.63;97526.81;8383666;28;20275;-61
2021/05/04 00:53:36;;;;;;;7.70;6.10;;;;;;;9.27;48.68;97527.19;8383306;28;20203;-61
2021/05/04 00:57:40;;;;;;;8.87;6.60;;;;;;;8.86;49.32;97516.16;8383789;28;20204;-62
2021/05/04 01:01:42;;;;;;;9.47;6.50;;;;;;;8.77;49.94;97509.66;8383826;28;20199;-61
2021/05/04 01:05:45;;;;;;;9.23;6.43;;;;;;;8.82;49.68;97507.72;8350327;28;20349;-61
2021/05/04 01:09:47;;;;;;;6.63;6.03;;;;;;;9.16;48.94;97494.09;8349783;28;20230;-61
2021/05/04 01:13:51;;;;;;;7.23;6.53;;;;;;;8.87;49.83;97494.56;8350295;28;20209;-61
2021/05/04 01:17:53;;;;;;;7.90;6.60;;;;;;;8.85;49.95;97484.31;8349904;28;20207;-61
2021/05/04 01:21:56;;;;;;;7.50;6.80;;;;;;;8.69;50.42;97479.00;8350002;28;20244;-61
2021/05/04 01:25:58;;;;;;;7.43;6.40;;;;;;;8.78;50.55;97472.59;8349268;28;20241;-63
2021/05/04 01:30:00;;;;;;;8.20;6.53;;;;;;;8.93;49.79;97476.22;8349503;28;20200;-61
2021/05/04 01:34:02;;;;;;;10.57;7.07;;;;;;;9.23;48.77;97460.22;8349649;28;20205;-61
2021/05/04 01:38:05;;;;;;;7.30;6.60;;;;;;;8.93;49.78;97459.00;8349250;28;20200;-61
2021/05/04 01:42:06;;;;;;;7.97;6.80;;;;;;;9.04;49.42;97453.31;8348997;28;20227;-62
2021/05/04 01:46:08;;;;;;;7.50;6.63;;;;;;;9.09;49.20;97446.19;8349278;28;20228;-61
2021/05/04 01:50:11;;;;;;;7.70;6.90;;;;;;;9.28;48.73;97442.75;8349412;28;20200;-61
2021/05/04 01:54:14;;;;;;;10.43;6.90;;;;;;;9.24;48.33;97441.25;8348686;28;20204;-61
2021/05/04 01:58:17;;;;;;;6.83;6.10;;;;;;;9.48;48.33;97428.88;8348616;28;20488;-60
2021/05/04 02:02:19;;;;;;;6.83;6.23;;;;;;;9.58;47.61;97418.03;8353178;28;20218;-61
2021/05/04 02:06:21;;;;;;;7.90;6.23;;;;;;;9.47;47.28;97419.47;8381108;28;20235;-61
2021/05/04 02:10:24;;;;;;;6.77;6.17;;;;;;;9.44;47.25;97420.44;8380973;28;20211;-61
2021/05/04 02:14:26;;;;;;;6.80;6.10;;;;;;;9.59;46.84;97413.69;8380810;28;20204;-61
2021/05/04 02:18:28;;;;;;;6.43;5.83;;;;;;;9.63;46.75;97412.59;8380997;28;20199;-60
2021/05/04 02:22:30;;;;;;;6.80;5.23;;;;;;;9.87;45.72;97399.38;8381263;28;20235;-61
2021/05/04 02:26:33;;;;;;;6.87;5.80;;;;;;;9.82;45.54;97388.44;8380365;28;20227;-61
2021/05/04 02:30:35;;;;;;;6.17;5.57;;;;;;;9.83;45.76;97379.78;8380457;28;20199;-61
2021/05/04 02:34:37;;;;;;;6.03;5.43;;;;;;;9.68;45.70;97371.84;8380594;28;20230;-60
2021/05/04 02:38:39;;;;;;;8.33;5.50;;;;;;;9.67;46.11;97369.34;8380239;28;20219;-61
2021/05/04 02:42:42;;;;;;;8.00;5.87;;;;;;;9.68;45.68;97360.69;8380224;28;20227;-61
2021/05/04 02:46:44;;;;;;;6.07;5.47;;;;;;;9.91;45.38;97362.09;8380162;28;20249;-61
2021/05/04 02:50:46;;;;;;;6.60;5.90;;;;;;;9.82;44.96;97362.56;8380286;28;20475;-61
2021/05/04 02:54:48;;;;;;;5.93;5.43;;;;;;;9.90;45.72;97358.69;8379895;28;20203;-61
2021/05/04 02:58:50;;;;;;;6.57;5.83;;;;;;;10.00;45.58;97360.81;8379817;28;20199;-61
2021/05/04 03:02:52;;;;;;;5.93;5.43;;;;;;;9.98;45.57;97359.13;8379767;28;20203;-61
2021/05/04 03:06:54;;;;;;;6.27;5.60;;;;;;;9.82;45.74;97347.88;8379377;28;20255;-61
2021/05/04 03:10:56;;;;;;;7.23;5.47;;;;;;;9.89;46.20;97345.84;8379424;28;20503;-61
2021/05/04 03:14:59;;;;;;;5.80;5.20;;;;;;;9.86;45.92;97340.81;8378619;28;20200;-60
2021/05/04 03:19:01;;;;;;;6.40;5.80;;;;;;;9.69;45.67;97333.91;8379698;28;20200;-61
2021/05/04 03:23:03;;;;;;;6.70;6.00;;;;;;;9.56;46.27;97341.47;8379369;28;20235;-61
2021/05/04 03:27:05;;;;;;;6.43;5.83;;;;;;;9.60;46.05;97327.47;8379703;28;20228;-61
2021/05/04 03:31:08;;;;;;;7.40;6.30;;;;;;;9.23;46.79;97321.53;8379993;28;20207;-61
2021/05/04 03:35:10;;;;;;;6.80;6.20;;;;;;;9.65;45.91;97311.72;8379086;28;20382;-61
2021/05/04 03:39:12;;;;;;;6.57;5.97;;;;;;;9.50;46.01;97309.00;8379060;28;20235;-61
2021/05/04 03:43:14;;;;;;;7.40;6.00;;;;;;;9.72;45.69;97313.06;8378907;28;20200;-61
2021/05/04 03:47:17;;;;;;;6.77;6.10;;;;;;;9.68;45.43;97298.63;8379059;28;20227;-61
2021/05/04 03:51:20;;;;;;;6.83;5.97;;;;;;;9.42;46.13;97292.19;8378883;28;20505;-61
2021/05/04 03:55:22;;;;;;;7.37;6.17;;;;;;;9.63;45.66;97279.94;8379056;28;20215;-61
2021/05/04 03:59:24;;;;;;;7.60;6.07;;;;;;;9.77;45.62;97282.66;8378709;28;20200;-61
2021/05/04 04:03:27;;;;;;;7.00;6.30;;;;;;;9.81;45.21;97276.41;8378581;28;20398;-61
2021/05/04 04:07:29;;;;;;;8.60;6.10;;;;;;;9.84;45.32;97278.81;8378788;28;20556;-61
2021/05/04 04:11:31;;;;;;;7.33;6.33;;;;;;;9.77;45.53;97278.31;8378446;28;20204;-60
2021/05/04 04:15:33;;;;;;;6.63;6.00;;;;;;;9.75;45.45;97274.97;8378522;28;20208;-61
2021/05/04 04:19:36;;;;;;;7.80;6.43;;;;;;;9.70;45.66;97268.38;8379870;28;20214;-61
2021/05/04 04:23:37;;;;;;;7.10;6.40;;;;;;;9.76;45.78;97260.28;8385859;28;20329;-61
2021/05/04 04:27:39;;;;;;;7.33;6.30;;;;;;;9.90;45.56;97255.25;8384519;28;20252;-60
2021/05/04 04:31:42;;;;;;;7.10;6.20;;;;;;;10.12;45.28;97251.50;8384662;28;20542;-60
2021/05/04 04:35:44;;;;;;;10.90;6.50;;;;;;;10.13;45.21;97246.25;8384223;28;20305;-60
2021/05/04 04:39:46;;;;;;;7.40;6.03;;;;;;;10.12;45.51;97236.81;8384275;28;20503;-60
2021/05/04 04:43:48;;;;;;;6.73;6.10;;;;;;;10.31;45.08;97235.84;8383922;28;20211;-60
2021/05/04 04:47:50;;;;;;;6.57;5.93;;;;;;;10.37;45.01;97231.16;8383785;28;20282;-60
2021/05/04 04:51:53;;;;;;;6.93;5.73;;;;;;;10.55;44.79;97228.47;8383937;28;20199;-60
2021/05/04 04:55:55;;;;;;;7.47;5.83;;;;;;;10.66;44.52;97226.13;8383704;28;20455;-60
2021/05/04 04:59:57;;;;;;;7.03;5.97;;;;;;;10.59;44.38;97224.78;8370670;28;20271;-60
2021/05/04 05:03:59;;;;;;;5.83;5.33;;;;;;;10.69;44.32;97219.94;8377323;28;20220;-60
2021/05/04 05:08:02;;;;;;;6.23;5.63;;;;;;;10.84;44.48;97205.28;8380521;28;20617;-60
2021/05/04 05:12:05;;;;;;;7.00;5.60;;;;;;;10.76;44.51;97203.13;8383151;28;20210;-60
2021/05/04 05:16:07;;;;;;;8.33;5.40;;;;;;;10.62;44.86;97197.88;8382866;28;20215;-60
2021/05/04 05:20:10;;;;;;;8.30;5.33;;;;;;;10.81;44.48;97187.31;8381506;28;20231;-61
2021/05/04 05:24:13;;;;;;;6.33;5.37;;;;;;;10.71;44.94;97166.28;8382394;28;20235;-60
2021/05/04 05:28:15;;;;;;;34.37;7.40;;;;;;;10.91;44.27;97172.91;8350311;28;20211;-61
2021/05/04 05:32:17;;;;;;;8.87;5.67;;;;;;;10.84;44.45;97162.06;8382369;28;20372;-60
2021/05/04 05:36:19;;;;;;;34.80;7.13;;;;;;;10.90;44.24;97155.69;8381988;28;20204;-60
2021/05/04 05:40:22;;;;;;;45.40;8.47;;;;;;;11.02;44.34;97154.13;8381957;28;20352;-60
2021/05/04 05:44:24;;;;;;;8.33;5.23;;;;;;;11.10;44.23;97138.97;8381398;28;20254;-60
2021/05/04 05:48:26;;;;;;;5.30;3.50;;;;;;;11.61;50.07;97139.31;8376122;28;20242;-60
2021/05/04 05:52:28;;;;;;;8.20;5.00;;;;;;;11.36;45.57;97140.00;8381826;28;20200;-60
2021/05/04 05:56:32;;;;;;;6.87;4.93;;;;;;;11.29;44.63;97125.72;8380604;28;20498;-60
2021/05/04 06:00:34;;;;;;;6.10;4.20;;;;;;;11.73;44.80;97123.00;8381965;28;20250;-60
2021/05/04 06:04:36;;;;;;;7.07;5.07;;;;;;;11.94;43.50;97117.44;8382156;28;20530;-60
2021/05/04 06:08:38;;;;;;;9.33;4.90;;;;;;;11.78;43.92;97109.75;8382240;28;20235;-60
2021/05/04 06:12:41;;;;;;;6.80;4.80;;;;;;;12.03;44.34;97113.41;8381827;28;20231;-60
2021/05/04 06:16:43;;;;;;;4.67;4.17;;;;;;;12.15;44.04;97104.00;8381285;28;20459;-60
2021/05/04 06:20:45;;;;;;;5.07;4.00;;;;;;;12.30;42.74;97103.03;8381559;28;20297;-60
2021/05/04 06:24:47;;;;;;;4.77;4.00;;;;;;;12.03;42.37;97098.69;8381229;28;20468;-61
2021/05/04 06:28:50;;;;;;;4.60;4.20;;;;;;;12.09;42.22;97094.88;8412001;28;20199;-60
2021/05/04 06:32:52;;;;;;;4.37;3.97;;;;;;;12.07;41.61;97094.13;8401056;28;20196;-61
2021/05/04 06:36:54;;;;;;;4.20;3.70;;;;;;;12.05;42.02;97093.38;8371575;28;20585;-61
2021/05/04 06:40:56;;;;;;;5.83;3.90;;;;;;;12.01;42.11;97094.53;8378307;28;20208;-61
2021/05/04 06:44:59;;;;;;;5.30;3.57;;;;;;;12.21;41.77;97080.28;8358401;28;20223;-61
2021/05/04 06:49:01;;;;;;;4.77;3.60;;;;;;;12.28;41.48;97079.78;8368858;28;20306;-60
2021/05/04 06:53:03;;;;;;;4.17;3.73;;;;;;;12.19;41.34;97077.78;8380254;28;20268;-60
2021/05/04 06:57:05;;;;;;;3.43;3.13;;;;;;;12.27;41.45;97077.28;8379426;28;20274;-60
2021/05/04 07:01:09;;;;;;;4.10;3.70;;;;;;;12.34;41.52;97070.75;8376306;28;20199;-61
2021/05/04 07:05:11;;;;;;;5.70;3.80;;;;;;;12.30;41.61;97062.31;8378657;28;20231;-61
2021/05/04 07:09:13;;;;;;;5.23;3.83;;;;;;;12.43;41.75;97059.75;8378693;28;20199;-60
2021/05/04 07:13:19;;;;;;;4.10;3.70;;;;;;;12.51;41.53;97061.84;8372260;28;20207;-62
2021/05/04 07:17:23;;;;;;;6.33;3.63;;;;;;;12.55;41.59;97052.91;8376875;28;20310;-61
2021/05/04 07:21:25;;;;;;;4.83;3.90;;;;;;;12.63;41.52;97055.00;8378010;28;20264;-61
2021/05/04 07:25:27;;;;;;;5.13;4.17;;;;;;;12.69;41.68;97054.56;8378340;28;20223;-61
2021/05/04 07:29:29;;;;;;;6.20;3.50;;;;;;;12.62;41.71;97041.19;8378046;28;20196;-60
2021/05/04 07:33:32;;;;;;;5.10;3.90;;;;;;;12.57;42.08;97042.44;8375646;28;20196;-60
2021/05/04 07:37:38;;;;;;;6.33;4.20;;;;;;;12.73;41.66;97037.03;8377559;28;20272;-61
2021/05/04 07:41:39;;;;;;;5.17;3.50;;;;;;;12.55;42.62;97026.13;8376856;28;20195;-62
2021/05/04 07:45:41;;;;;;;6.27;4.30;;;;;;;12.90;41.66;97034.09;8373907;28;20280;-61
2021/05/04 07:49:47;;;;;;;4.60;3.90;;;;;;;13.00;41.70;97032.53;8377622;28;20227;-61
2021/05/04 07:53:49;;;;;;;6.23;3.43;;;;;;;14.19;46.73;97024.13;8372221;28;20246;-63
2021/05/04 07:57:51;;;;;;;4.90;3.57;;;;;;;13.76;42.44;97014.25;8360918;28;20232;-64
2021/05/04 08:01:53;;;;;;;4.93;3.33;;;;;;;14.24;41.27;97022.00;8375960;28;20231;-62
2021/05/04 08:05:56;;;;;;;6.83;3.97;;;;;;;13.30;41.87;97021.78;8383811;28;20350;-63
2021/05/04 08:09:58;;;;;;;4.77;3.90;;;;;;;13.34;41.92;97012.00;8384336;28;20206;-63
2021/05/04 08:14:00;;;;;;;5.10;4.40;;;;;;;12.94;42.47;97022.56;8384068;28;20212;-64
2021/05/04 08:18:04;;;;;;;6.83;5.00;;;;;;;13.04;42.79;97017.53;8384119;28;20203;-64
2021/05/04 08:22:07;;;;;;;6.50;4.70;;;;;;;12.93;42.81;97015.72;8384497;28;20277;-64
2021/05/04 08:26:10;;;;;;;4.80;4.13;;;;;;;12.84;43.02;97004.16;8375330;28;20267;-64
2021/05/04 08:30:13;;;;;;;5.00;4.33;;;;;;;12.98;42.50;97000.59;8375466;28;20207;-69
2021/05/04 08:34:31;;;;;;;5.57;4.50;;;;;;;13.07;42.50;97001.75;8383953;28;20200;-68
2021/05/04 08:38:34;;;;;;;5.30;4.10;;;;;;;13.32;42.21;96990.47;8384662;28;20218;-68
2021/05/04 08:42:36;;;;;;;5.77;4.20;;;;;;;13.53;41.98;96995.91;8373243;28;20197;-68
2021/05/04 08:46:39;;;;;;;6.83;4.17;;;;;;;13.32;42.72;96977.47;8365426;28;20223;-68
2021/05/04 08:50:41;;;;;;;8.10;4.47;;;;;;;13.54;42.38;96970.75;8371586;28;20200;-68
2021/05/04 08:54:44;;;;;;;7.97;4.00;;;;;;;13.46;42.49;96966.94;8373243;28;20262;-68
2021/05/04 08:58:50;;;;;;;6.67;3.77;;;;;;;13.60;42.54;96962.50;8370601;28;20380;-67
2021/05/04 09:02:58;;;;;;;6.00;4.10;;;;;;;13.65;42.81;96956.03;8369056;28;20240;-68
2021/05/04 09:07:15;;;;;;;6.13;4.50;;;;;;;13.74;42.23;96953.69;8377265;28;20232;-69
2021/05/04 09:20:23;;;;;;;3.83;3.40;;;;;;;14.02;42.07;96937.69;8382719;28;20240;-68
2021/05/04 09:24:28;;;;;;;3.97;3.43;;;;;;;14.44;41.63;96924.97;8382371;28;20211;-68
2021/05/04 09:28:30;;;;;;;4.50;3.30;;;;;;;14.62;41.05;96925.38;8381698;28;20281;-69
2021/05/04 09:32:32;;;;;;;3.43;3.07;;;;;;;14.71;40.72;96915.19;8377827;28;20199;-68
2021/05/04 09:36:46;;;;;;;2.43;2.00;;;;;;;14.85;39.64;96915.78;8382987;28;20282;-69
2021/05/04 09:40:48;;;;;;;4.57;2.00;;;;;;;14.82;36.98;96912.56;8382697;28;20200;-70
2021/05/04 09:44:52;;;;;;;2.70;1.60;;;;;;;15.09;36.03;96898.31;8382678;28;20523;-69
2021/05/04 09:48:54;;;;;;;3.00;1.60;;;;;;;15.36;35.54;96897.88;8382103;28;20369;-69
2021/05/04 09:53:05;;;;;;;5.43;1.80;;;;;;;15.24;34.35;96904.91;8382307;28;20222;-75
2021/05/04 09:57:29;;;;;;;3.40;1.80;;;;;;;15.38;34.39;96891.59;8382163;28;20210;-75
2021/05/04 10:01:32;;;;;;;2.63;1.60;;;;;;;15.61;34.96;96875.81;8381985;28;20274;-74
2021/05/04 10:05:34;;;;;;;5.00;1.90;;;;;;;15.55;33.71;96886.78;8381676;28;20232;-68
2021/05/04 10:09:36;;;;;;;2.57;1.60;;;;;;;16.06;33.32;96887.84;8381069;28;20203;-67
2021/05/04 10:13:39;;;;;;;3.33;1.60;;;;;;;16.40;33.40;96891.06;8381876;28;20200;-63
2021/05/04 10:17:43;;;;;;;3.57;1.60;;;;;;;16.24;32.67;96886.31;8381794;28;20373;-63
2021/05/04 10:21:47;;;;;;;5.87;1.80;;;;;;;16.38;32.08;96877.28;8382331;28;20246;-63
2021/05/04 10:25:52;;;;;;;4.00;1.60;;;;;;;17.43;30.82;96876.88;8379801;28;20441;-63
2021/05/04 10:29:54;;;;;;;3.43;1.63;;;;;;;17.26;31.47;96873.16;8381696;28;20475;-63
2021/05/04 10:33:57;;;;;;;3.17;1.40;;;;;;;17.06;31.54;96868.84;8381187;28;20204;-63
2021/05/04 10:38:00;;;;;;;11.33;1.70;;;;;;;17.13;31.21;96855.09;8381002;28;20462;-63
2021/05/04 10:42:05;;;;;;;2.37;1.60;;;;;;;16.99;31.64;96877.25;8380803;28;20199;-63
2021/05/04 10:46:12;;;;;;;2.90;1.60;;;;;;;16.93;31.78;96869.13;8380493;28;20231;-62
2021/05/04 10:50:15;;;;;;;5.63;1.50;;;;;;;16.78;31.31;96869.44;8381355;28;20200;-63
2021/05/04 10:54:53;;;;;;;4.50;1.43;;;;;;;16.92;31.14;96867.44;8380749;28;20198;-63
2021/05/04 10:58:55;;;;;;;4.30;1.50;;;;;;;17.23;31.32;96867.34;8380679;28;20214;-63
2021/05/04 11:03:35;;;;;;;2.97;1.53;;;;;;;17.09;30.77;96865.97;8380024;28;20195;-62
2021/05/04 11:07:57;;;;;;;5.13;1.60;;;;;;;16.69;29.69;96869.44;8366847;28;20288;-63
2021/05/04 11:11:59;;;;;;;9.57;1.63;;;;;;;16.59;29.28;96867.59;8380602;28;20212;-63
2021/05/04 11:16:28;;;;;;;3.28;1.40;;;;;;;16.70;28.59;96878.94;8379437;28;20426;-68
2021/05/04 11:20:35;;;;;;;3.70;1.20;;;;;;;16.61;28.86;96867.47;8379748;28;20239;-67
2021/05/04 11:24:40;;;;;;;2.47;1.57;;;;;;;16.61;28.76;96875.31;8379284;28;20231;-67
2021/05/04 11:29:06;;;;;;;5.80;1.57;;;;;;;16.47;29.07;96873.03;8378640;28;20188;-68
2021/05/04 11:33:30;;;;;;;3.80;1.20;;;;;;;16.33;28.80;96876.84;8379833;28;20380;-68
2021/05/04 11:37:39;;;;;;;5.60;1.40;;;;;;;16.46;29.19;96864.38;8356621;28;20318;-67
2021/05/04 11:41:53;;;;;;;3.33;1.60;;;;;;;16.41;29.01;96872.63;8362231;28;20451;-68
2021/05/04 11:45:55;;;;;;;11.33;1.37;;;;;;;16.17;28.27;96870.31;8373166;28;20243;-68
2021/05/04 11:50:03;;;;;;;6.40;1.80;;;;;;;16.26;28.13;96867.88;8346092;28;20212;-69
2021/05/04 11:54:05;;;;;;;8.23;1.60;;;;;;;16.54;28.98;96867.16;8346756;28;20383;-68
2021/05/04 11:58:09;;;;;;;8.20;1.60;;;;;;;16.35;30.83;96894.03;8346061;28;20272;-71
2021/05/04 12:02:26;;;;;;;2.90;1.63;;;;;;;16.20;32.15;96904.03;8359987;28;20203;-69
2021/05/04 12:06:44;;;;;;;8.47;1.70;;;;;;;15.99;33.72;96905.78;8366900;28;20258;-69
2021/05/04 12:10:47;;;;;;;5.10;1.87;;;;;;;15.88;34.60;96904.09;8378967;28;20283;-69
2021/05/04 12:15:09;;;;;;;4.73;1.90;;;;;;;15.90;35.32;96906.59;8379027;28;20208;-70
2021/05/04 12:19:21;;;;;;;6.03;1.80;;;;;;;15.68;35.25;96899.66;8378757;28;20200;-69
2021/05/04 12:23:28;;;;;;;3.87;1.93;;;;;;;15.80;35.75;96911.72;8367667;28;20343;-68
2021/05/04 12:27:32;;;;;;;6.80;1.90;;;;;;;15.72;35.14;96901.06;8350440;28;20230;-70
2021/05/04 12:31:36;;;;;;;4.83;2.20;;;;;;;15.88;35.22;96903.25;8372072;28;20224;-70
2021/05/04 12:35:47;;;;;;;3.70;1.90;;;;;;;15.82;35.51;96902.81;8352627;28;20204;-70
2021/05/04 12:39:49;;;;;;;6.37;1.53;;;;;;;15.56;35.41;96907.53;8345454;28;20207;-70
2021/05/04 12:44:04;;;;;;;2.47;1.50;;;;;;;15.51;35.40;96927.94;8351692;28;20201;-69
2021/05/04 12:48:16;;;;;;;3.20;1.47;;;;;;;15.42;35.20;96905.19;8351486;28;20334;-69
2021/05/04 12:52:19;;;;;;;6.47;1.70;;;;;;;15.29;35.65;96909.75;8353323;28;20383;-70
2021/05/04 12:56:22;;;;;;;5.00;1.43;;;;;;;15.50;35.98;96909.78;8381565;28;20355;-69
2021/05/04 13:00:25;;;;;;;6.70;1.70;;;;;;;15.42;35.94;96921.69;8383840;28;20200;-69
2021/05/04 13:04:39;;;;;;;3.40;1.40;;;;;;;15.34;37.06;96929.28;8384126;28;20224;-69
2021/05/04 13:08:52;;;;;;;5.07;1.57;;;;;;;15.33;36.38;96917.22;8384347;28;20322;-70
2021/05/04 13:13:25;;;;;;;5.30;1.90;;;;;;;15.22;36.42;96918.06;8384120;28;20208;-69
2021/05/04 13:30:39;;;;;;;3.17;1.60;;;;;;;15.28;37.51;96910.72;8382958;28;20444;-69
2021/05/04 13:34:50;;;;;;;4.27;1.37;;;;;;;14.99;38.36;96914.69;8383097;28;20509;-70
2021/05/04 13:39:07;;;;;;;5.83;1.73;;;;;;;14.93;38.89;96924.78;8382899;28;20191;-70
2021/05/04 13:47:30;;;;;;;2.67;1.00;;;;;;;14.73;39.65;96931.53;8382980;28;20247;-72
2021/05/04 13:51:32;;;;;;;6.33;1.80;;;;;;;14.89;39.75;96921.56;8382580;28;20204;-70
2021/05/04 13:55:35;;;;;;;3.67;1.10;;;;;;;14.68;40.05;96933.66;8382835;28;20210;-72
2021/05/04 13:59:37;;;;;;;10.37;1.70;;;;;;;14.70;40.45;96943.03;8382796;28;20207;-73
2021/05/04 14:03:47;;;;;;;5.83;1.60;;;;;;;14.71;41.20;96949.88;8382327;28;20501;-72
2021/05/04 14:29:36;;;;;;;4.50;1.53;;;;;;;14.78;42.73;96914.59;8364160;28;20201;-61
2021/05/04 14:33:38;;;;;;;4.90;1.33;;;;;;;14.92;42.26;96931.75;8364202;28;20260;-61
2021/05/04 14:37:46;;;;;;;2.67;1.40;;;;;;;14.80;42.30;96936.16;8364097;28;20199;-61
2021/05/04 14:42:08;;;;;;;3.60;2.53;;;;;;;15.03;41.89;96929.13;8368936;28;20193;-60
2021/05/04 14:46:35;;;;;;;2.00;1.70;;;;;;;14.96;40.79;96935.75;8365185;28;20237;-69
2021/05/04 14:59:24;;;;;;;5.07;1.53;;;;;;;14.93;39.92;96922.16;8307277;28;20455;-71
2021/05/04 15:03:28;;;;;;;3.47;2.20;;;;;;;14.81;40.42;96911.75;8366240;28;20315;-71
2021/05/04 15:07:30;;;;;;;15.97;2.37;;;;;;;15.02;47.90;96909.22;8363868;28;20228;-64
2021/05/04 15:11:32;;;;;;;11.50;2.57;;;;;;;15.90;43.83;96925.69;8364185;28;20213;-63
2021/05/04 15:15:42;;;;;;;4.50;1.10;;;;;;;15.64;40.30;96897.28;8362885;28;20207;-63
2021/05/04 15:24:06;;;;;;;12.93;1.97;;;;;;;16.36;43.90;96913.19;8364050;28;20280;-64
2021/05/04 15:28:08;;;;;;;9.67;1.20;;;;;;;16.32;42.45;96919.63;8364612;28;20224;-63
2021/05/04 15:32:23;;;;;;;5.70;1.20;;;;;;;16.10;41.03;96910.94;8362102;28;20193;-65
2021/05/04 15:36:26;;;;;;;6.40;1.50;;;;;;;16.17;43.30;96911.28;8368149;28;20199;-63
2021/05/04 15:40:29;;;;;;;10.17;1.70;;;;;;;16.67;41.42;96906.16;8362029;28;20195;-63
2021/05/04 15:44:31;;;;;;;2.47;1.10;;;;;;;16.44;39.77;96902.88;8364558;28;20360;-70
2021/05/04 15:48:39;;;;;;;2.30;1.33;;;;;;;15.86;41.03;96885.13;8371366;28;20231;-62
2021/05/04 15:52:53;;;;;;;3.07;1.10;;;;;;;15.52;42.17;96893.06;8365087;28;20475;-62
2021/05/04 16:10:08;;;;;;;1.60;1.20;;;;;;;14.79;45.59;96897.16;8328024;28;20348;-63
2021/05/04 16:14:10;;;;;;;1.60;1.00;;;;;;;14.80;46.09;96902.25;8362225;28;20507;-62
2021/05/04 16:18:12;;;;;;;3.97;3.57;;;;;;;14.86;47.00;96906.16;8352703;28;20204;-62
2021/05/04 16:22:19;;;;;;;3.93;3.30;;;;;;;14.74;47.41;96888.91;8352688;28;20235;-62
2021/05/04 16:26:41;;;;;;;3.33;1.90;;;;;;;14.35;49.09;96885.78;8352535;28;20255;-62
2021/05/04 16:30:43;;;;;;;5.17;4.50;;;;;;;14.35;49.03;96873.59;8352242;28;20397;-62
2021/05/04 16:34:46;;;;;;;3.07;2.10;;;;;;;14.37;48.94;96873.47;8352178;28;20219;-63
2021/05/04 16:38:48;;;;;;;1.30;1.20;;;;;;;14.19;49.95;96873.13;8379270;28;20220;-64
2021/05/04 16:42:51;;;;;;;1.33;1.10;;;;;;;14.34;50.60;96868.53;8385395;28;20206;-62
2021/05/04 16:46:57;;;;;;;1.17;1.10;;;;;;;14.58;50.08;96868.41;8385023;28;20222;-62
2021/05/04 16:50:59;;;;;;;3.60;2.83;;;;;;;14.53;50.32;96868.75;8352384;28;20499;-62
2021/05/04 16:55:01;;;;;;;2.73;1.40;;;;;;;14.26;49.47;96871.72;8352229;28;20518;-62
2021/05/04 16:59:04;;;;;;;2.40;1.60;;;;;;;14.18;49.86;96858.44;8351840;28;20486;-63
2021/05/04 17:03:06;;;;;;;2.70;1.50;;;;;;;13.98;50.63;96850.38;8363044;28;20199;-62
2021/05/04 17:07:12;;;;;;;4.57;2.20;;;;;;;13.95;51.53;96847.16;8384749;28;20526;-62
2021/05/04 17:11:14;;;;;;;2.20;1.80;;;;;;;13.94;51.24;96837.72;8384686;28;20184;-62
2021/05/04 17:15:18;;;;;;;1.43;1.33;;;;;;;13.87;51.73;96827.75;8384437;28;20227;-62
2021/05/04 17:19:21;;;;;;;2.93;1.90;;;;;;;13.81;51.58;96833.44;8384926;28;20227;-62
2021/05/04 17:23:26;;;;;;;4.07;1.60;;;;;;;13.55;51.99;96832.78;8384467;28;20241;-62
2021/05/04 17:27:31;;;;;;;2.43;1.60;;;;;;;13.41;52.27;96817.38;8383905;28;20236;-62
2021/05/04 17:31:34;;;;;;;2.83;1.70;;;;;;;13.54;52.05;96823.31;8383657;28;20210;-62
2021/05/04 17:35:36;;;;;;;1.60;1.47;;;;;;;13.29;51.92;96827.72;8383401;28;20210;-62
2021/05/04 17:39:39;;;;;;;1.90;1.70;;;;;;;13.45;51.22;96824.81;8383896;28;20546;-62
2021/05/04 17:43:41;;;;;;;1.70;1.60;;;;;;;13.55;51.16;96829.34;8377127;28;20203;-62
2021/05/04 17:47:44;;;;;;;2.07;1.70;;;;;;;13.53;51.21;96826.03;8372354;28;20230;-62
2021/05/04 17:51:46;;;;;;;9.70;2.00;;;;;;;14.60;52.80;96823.06;8367099;28;20211;-65
2021/05/04 17:55:48;;;;;;;4.83;1.70;;;;;;;14.41;50.26;96815.84;8381992;28;20219;-65
2021/05/04 17:59:50;;;;;;;3.80;1.60;;;;;;;14.89;48.59;96811.25;8379678;28;20224;-65
2021/05/04 18:03:53;;;;;;;3.83;1.17;;;;;;;14.74;48.55;96803.72;8381741;28;20283;-65
2021/05/04 18:07:57;;;;;;;1.30;1.20;;;;;;;14.67;48.44;96805.16;8382409;28;20223;-65
2021/05/04 18:12:08;;;;;;;2.00;1.20;;;;;;;14.79;47.28;96795.53;8378782;28;20206;-62
2021/05/04 18:24:57;;;;;;;1.40;1.30;;;;;;;13.96;49.71;96786.38;8381953;28;20200;-63
2021/05/04 18:29:00;;;;;;;2.20;1.80;;;;;;;13.69;50.19;96779.72;8381627;28;20235;-62
2021/05/04 18:33:02;;;;;;;2.20;1.70;;;;;;;13.79;50.45;96766.84;8381302;28;20211;-62
2021/05/04 18:37:31;;;;;;;2.80;1.73;;;;;;;13.73;50.83;96757.72;8381661;28;20223;-62
2021/05/04 18:46:42;;;;;;;2.43;1.90;;;;;;;13.53;51.93;96759.22;8380974;28;20301;-62
2021/05/04 19:03:57;;;;;;;2.77;2.50;;;;;;;13.43;53.20;96745.28;8366018;28;20237;-61
2021/05/04 19:12:41;;;;;;;4.80;2.30;;;;;;;13.27;53.86;96759.41;8362068;28;20196;-62
2021/05/04 19:30:01;;;;;;;4.23;1.77;;;;;;;13.20;56.04;96794.59;8380221;28;20210;-62
2021/05/04 20:08:59;;;;;;;1.03;0.97;;;;;;;12.28;61.20;96837.50;8386484;28;20231;-61
2021/05/04 20:13:02;;;;;;;1.60;1.17;;;;;;;12.22;61.66;96830.16;8385911;28;20396;-62
2021/05/04 20:17:08;;;;;;;1.03;0.93;;;;;;;12.43;60.88;96830.41;8385723;28;20486;-62
2021/05/04 20:21:11;;;;;;;0.87;0.80;;;;;;;12.26;61.03;96832.44;8386180;28;20234;-62
2021/05/04 20:25:14;;;;;;;0.77;0.77;;;;;;;12.08;62.04;96833.69;8386199;28;20205;-62
2021/05/04 20:29:15;;;;;;;1.53;0.70;;;;;;;12.38;60.72;96840.31;8386180;28;20250;-62
2021/05/04 20:33:20;;;;;;;2.53;0.77;;;;;;;12.28;60.79;96843.53;8385593;28;20199;-62
2021/05/04 20:37:22;;;;;;;1.07;0.80;;;;;;;12.29;60.77;96836.56;8385911;28;20449;-62
2021/05/04 20:41:25;;;;;;;1.70;1.50;;;;;;;12.27;60.56;96841.03;8385410;28;20441;-62
2021/05/04 20:45:27;;;;;;;1.37;1.17;;;;;;;12.36;60.25;96839.59;8384943;28;20231;-62
2021/05/04 20:49:29;;;;;;;2.40;1.03;;;;;;;12.06;60.12;96823.41;8384695;28;20228;-63
2021/05/04 20:53:32;;;;;;;1.40;0.80;;;;;;;12.04;60.14;96824.47;8381688;28;20210;-62
2021/05/04 20:57:34;;;;;;;1.50;1.00;;;;;;;12.03;58.99;96820.19;8372477;28;20410;-62
2021/05/04 21:01:36;;;;;;;2.20;1.00;;;;;;;11.91;57.87;96821.88;8359596;28;20212;-63
2021/05/04 21:05:40;;;;;;;1.87;1.20;;;;;;;12.07;57.42;96827.69;8383176;28;20227;-62
2021/05/04 21:09:56;;;;;;;1.50;0.80;;;;;;;11.72;58.22;96812.69;8384221;28;20340;-62
2021/05/04 21:13:58;;;;;;;2.93;1.23;;;;;;;11.91;57.24;96824.47;8384115;28;20227;-62
2021/05/04 21:18:03;;;;;;;1.63;0.80;;;;;;;11.95;56.70;96827.69;8384279;28;20208;-62
2021/05/04 21:22:15;;;;;;;1.57;0.77;;;;;;;11.88;57.13;96842.78;8384562;28;20235;-62
2021/05/04 21:26:23;;;;;;;1.60;0.60;;;;;;;11.90;57.20;96848.75;8383810;28;20238;-62
2021/05/04 21:30:25;;;;;;;5.10;1.20;;;;;;;11.91;58.35;96860.78;8384156;28;20188;-62
2021/05/04 21:34:27;;;;;;;1.60;0.83;;;;;;;11.85;58.43;96859.41;8383536;28;20361;-62
2021/05/04 21:38:29;;;;;;;1.43;0.70;;;;;;;11.93;57.47;96851.94;8383300;28;20208;-62
2021/05/04 21:42:32;;;;;;;1.57;0.80;;;;;;;11.95;56.74;96848.44;8383617;28;20200;-62
2021/05/04 21:46:34;;;;;;;3.23;0.90;;;;;;;11.52;56.61;96821.00;8383138;28;20228;-62